Portada
METAR-TAF:

METAR-TAF

Aeroports :

Blackpool, Anglaterra

latitud: 53-46N, longitud: 003-02W, altitud: 10 m

Observació

L'informe es va fer fa 45 minuts, a les 12:50 UTC
Vent 14 kt del Est
Temperatura 18°C
Humitat 64%
Pressió 1022 hPa
Visibilitat 10 km o més
Escasses núvols a una alçada de 2500 ft

METAR: EGNH 201250Z 09014KT 9999 FEW025 18/11 Q1022

Hora: 14:35 (13:35 UTC)

Pronòstic

L'informe es va fer fa 2 hores i 40 minuts, a les 10:55 UTC
Pronòstic vàlid del 20 a les 12 UTC al 20 a les 20 UTC
Vent 9 kt del Est
Visibilitat 10 km o més
Núvols disperses a una alçada de 2500 ft

TAF: EGNH 201055Z 2012/2020 09009KT 9999 SCT025

Observacions i pronòstics meteorològics de més de 4000 aeroports (METAR i TAF).

Les estacions disponibles són els punts grocs i vermells al mapa.

Posi el ratolí al punt desitjat per veure el nom de l'estació.

Feu clic per veure les observacions i els pronòstics meteorològics.

Per canviar el mapa: feu clic els botons verds amb una creu de color negre per apropar; al botó verd amb un guió per allunyar la imatge; o en les fletxes verdes per a mapes adjacents.


METAR-TAF: